Observation data for White River Lake on 01/18/2019      Previous  Date  Next       Current Mesonet Observations  Soil Data  Daily Summary Page  Observations in Plain Language
KWVS 180600Z 24001KT 07/02 A3001 RMK A01 T00650020  RH  074%=      5-min Rain = 0
KWVS 180605Z 24002KT 06/02 A3002 RMK A01 T00610018  RH  075%=      5-min Rain = 0
KWVS 180610Z 21002KT 07/02 A3002 RMK A01 T00650021  RH  075%=      5-min Rain = 0
KWVS 180615Z 19003KT 07/02 A3001 RMK A01 T00680023  RH  074%=      5-min Rain = 0
KWVS 180620Z 20003KT 07/02 A3001 RMK A01 T00710023  RH  073%=      5-min Rain = 0
KWVS 180625Z 19004KT 07/02 A3001 RMK A01 T00730023  RH  072%=      5-min Rain = 0
KWVS 180630Z 18004KT 08/02 A3001 RMK A01 T00760023  RH  071%=      5-min Rain = 0
KWVS 180635Z 19004KT 07/02 A3001 RMK A01 T00740022  RH  070%=      5-min Rain = 0
KWVS 180640Z 20004KT 07/02 A3001 RMK A01 T00710022  RH  072%=      5-min Rain = 0
KWVS 180645Z 20004KT 07/02 A30 RMK A01 T00680021  RH  073%=      5-min Rain = 0
KWVS 180650Z 20005KT 07/02 A30 RMK A01 T00660021  RH  074%=      5-min Rain = 0
KWVS 180655Z 20006KT 06/02 A30 RMK A01 T00640019  RH  074%=      5-min Rain = 0
KWVS 180700Z 19005KT 06/02 A2999 RMK A01 T00610019  RH  075%=      5-min Rain = 0
KWVS 180705Z 19005KT 06/02 A2999 RMK A01 T00610019  RH  076%=      5-min Rain = 0
KWVS 180710Z 20004KT 06/02 A2999 RMK A01 T00630020  RH  075%=      5-min Rain = 0
KWVS 180715Z 20004KT 07/02 A2999 RMK A01 T00660020  RH  074%=      5-min Rain = 0
KWVS 180720Z 20004KT 07/02 A2998 RMK A01 T00660020  RH  073%=      5-min Rain = 0
KWVS 180725Z 20004KT 07/02 A2998 RMK A01 T00680018  RH  072%=      5-min Rain = 0
KWVS 180730Z 21004KT 07/02 A2998 RMK A01 T00710016  RH  069%=      5-min Rain = 0
KWVS 180735Z 22004KT 08/01 A2997 RMK A01 T00750013  RH  066%=      5-min Rain = 0
KWVS 180740Z 22005KT 07/01 A2997 RMK A01 T00740012  RH  065%=      5-min Rain = 0
KWVS 180745Z 22006KT 07/01 A2997 RMK A01 T00740008  RH  064%=      5-min Rain = 0
KWVS 180750Z 21007KT 07/01 A2997 RMK A01 T00720005  RH  063%=      5-min Rain = 0
KWVS 180755Z 21008KT 07/01 A2997 RMK A01 T00710006  RH  064%=      5-min Rain = 0
KWVS 180800Z 21009KT 07/01 A2996 RMK A01 T00710007  RH  065%=      5-min Rain = 0
KWVS 180805Z 21009KT 07/01 A2996 RMK A01 T00730007  RH  064%=      5-min Rain = 0
KWVS 180810Z 21009KT 07/01 A2996 RMK A01 T00730007  RH  063%=      5-min Rain = 0
KWVS 180815Z 21008KT 07/01 A2996 RMK A01 T00710006  RH  064%=      5-min Rain = 0
KWVS 180820Z 21009KT 07/01 A2995 RMK A01 T00710006  RH  064%=      5-min Rain = 0
KWVS 180825Z 21010KT 07/01 A2995 RMK A01 T00740005  RH  063%=      5-min Rain = 0
KWVS 180830Z 20009KT 08/01 A2995 RMK A01 T00750005  RH  062%=      5-min Rain = 0
KWVS 180835Z 20009KT 08/01 A2995 RMK A01 T00770005  RH  061%=      5-min Rain = 0
KWVS 180840Z 20009KT 08/00 A2994 RMK A01 T00790004  RH  060%=      5-min Rain = 0
KWVS 180845Z 21008KT 08/00 A2994 RMK A01 T00780004  RH  060%=      5-min Rain = 0
KWVS 180850Z 21008KT 08/00 A2994 RMK A01 T00750002  RH  061%=      5-min Rain = 0
KWVS 180855Z 21007KT 07/00 A2994 RMK A01 T00730002  RH  061%=      5-min Rain = 0
KWVS 180900Z 21008KT 07/00 A2994 RMK A01 T00720002  RH  062%=      5-min Rain = 0
KWVS 180905Z 21008KT 07/00 A2993 RMK A01 T00720003  RH  062%=      5-min Rain = 0
KWVS 180910Z 22007KT 07/00 A2994 RMK A01 T00720003  RH  062%=      5-min Rain = 0
KWVS 180915Z 21008KT 07/00 A2993 RMK A01 T00720004  RH  063%=      5-min Rain = 0
KWVS 180920Z 21009KT 07/01 A2993 RMK A01 T00730006  RH  063%=      5-min Rain = 0
KWVS 180925Z 21009KT 08/01 A2993 RMK A01 T00750007  RH  063%=      5-min Rain = 0
KWVS 180930Z 21009KT 08/01 A2993 RMK A01 T00750009  RH  064%=      5-min Rain = 0
KWVS 180935Z 21010KT 08/01 A2993 RMK A01 T00750009  RH  064%=      5-min Rain = 0
KWVS 180940Z 21009KT 08/01 A2992 RMK A01 T00760010  RH  064%=      5-min Rain = 0
KWVS 180945Z 22009KT 08/01 A2992 RMK A01 T00750011  RH  065%=      5-min Rain = 0
KWVS 180950Z 22009KT 08/01 A2992 RMK A01 T00770012  RH  064%=      5-min Rain = 0
KWVS 180955Z 21009KT 08/01 A2992 RMK A01 T00750012  RH  065%=      5-min Rain = 0
KWVS 181000Z 20010KT 07/01 A2991 RMK A01 T00740013  RH  066%=      5-min Rain = 0
KWVS 181005Z 21010KT 08/02 A2991 RMK A01 T00790015  RH  065%=      5-min Rain = 0
KWVS 181010Z 22009KT 08/01 A2991 RMK A01 T00760014  RH  066%=      5-min Rain = 0
KWVS 181015Z 22010KT 08/02 A2991 RMK A01 T00770016  RH  066%=      5-min Rain = 0
KWVS 181020Z 22012KT 08/02 A2991 RMK A01 T00810018  RH  065%=      5-min Rain = 0
KWVS 181025Z 22012KT 08/02 A299 RMK A01 T00830019  RH  065%=      5-min Rain = 0
KWVS 181030Z 22013KT 08/02 A299 RMK A01 T00840020  RH  065%=      5-min Rain = 0
KWVS 181035Z 22013KT 08/02 A299 RMK A01 T00840020  RH  065%=      5-min Rain = 0
KWVS 181040Z 21014KT 08/02 A2989 RMK A01 T00840021  RH  066%=      5-min Rain = 0
KWVS 181045Z 21012KT 08/02 A2989 RMK A01 T00830021  RH  066%=      5-min Rain = 0
KWVS 181050Z 22010KT 08/02 A2989 RMK A01 T00800021  RH  067%=      5-min Rain = 0
KWVS 181055Z 22009KT 08/02 A2989 RMK A01 T00760020  RH  069%=      5-min Rain = 0
KWVS 181100Z 23007KT 07/02 A2989 RMK A01 T00730020  RH  070%=      5-min Rain = 0
KWVS 181105Z 22007KT 07/02 A2988 RMK A01 T00720020  RH  071%=      5-min Rain = 0
KWVS 181110Z 22008KT 07/02 A2988 RMK A01 T00680019  RH  072%=      5-min Rain = 0
KWVS 181115Z 22010KT 07/02 A2988 RMK A01 T00670019  RH  072%=      5-min Rain = 0
KWVS 181120Z 21011KT 07/02 A2987 RMK A01 T00690019  RH  072%=      5-min Rain = 0
KWVS 181125Z 21010KT 07/02 A2987 RMK A01 T00660018  RH  072%=      5-min Rain = 0
KWVS 181130Z 21010KT 06/02 A2986 RMK A01 T00620017  RH  074%=      5-min Rain = 0
KWVS 181135Z 21010KT 06/02 A2985 RMK A01 T00640017  RH  073%=      5-min Rain = 0
KWVS 181140Z 22009KT 06/02 A2985 RMK A01 T00630015  RH  073%=      5-min Rain = 0
KWVS 181145Z 22010KT 06/01 A2985 RMK A01 T00630014  RH  072%=      5-min Rain = 0
KWVS 181150Z 23011KT 07/01 A2985 RMK A01 T00660014  RH  071%=      5-min Rain = 0
KWVS 181155Z 23012KT 07/01 A2984 RMK A01 T00670014  RH  070%=      5-min Rain = 0
KWVS 181200Z 23012KT 07/01 A2984 RMK A01 T00680013  RH  069%=      5-min Rain = 0
KWVS 181205Z 23013KT 07/01 A2983 RMK A01 T00700013  RH  068%=      5-min Rain = 0
KWVS 181210Z 23013KT 07/01 A2983 RMK A01 T00720012  RH  067%=      5-min Rain = 0
KWVS 181215Z 23012KT 07/01 A2984 RMK A01 T00740011  RH  066%=      5-min Rain = 0
KWVS 181220Z 23012KT 07/01 A2984 RMK A01 T00730011  RH  065%=      5-min Rain = 0
KWVS 181225Z 23013KT 08/01 A2983 RMK A01 T00750010  RH  064%=      5-min Rain = 0
KWVS 181230Z 23014KT 08/01 A2983 RMK A01 T00790009  RH  062%=      5-min Rain = 0
KWVS 181235Z 23014KT 08/01 A2983 RMK A01 T00810008  RH  061%=      5-min Rain = 0
KWVS 181240Z 23013G18KT 08/01 A2983 RMK A01 T00810007  RH  060%=      5-min Rain = 0
KWVS 181245Z 23014KT 08/01 A2983 RMK A01 T00810006  RH  060%=      5-min Rain = 0
KWVS 181250Z 23012KT 08/01 A2983 RMK A01 T00800006  RH  060%=      5-min Rain = 0
KWVS 181255Z 22011KT 08/01 A2982 RMK A01 T00800005  RH  060%=      5-min Rain = 0
KWVS 181300Z 23011KT 08/01 A2982 RMK A01 T00800005  RH  060%=      5-min Rain = 0
KWVS 181305Z 23011KT 08/01 A2982 RMK A01 T00810005  RH  059%=      5-min Rain = 0
KWVS 181310Z 23011KT 08/00 A2983 RMK A01 T00820004  RH  059%=      5-min Rain = 0
KWVS 181315Z 23012KT 09/00 A2982 RMK A01 T00880004  RH  056%=      5-min Rain = 0
KWVS 181320Z 23011KT 09/00 A2982 RMK A01 T00900004  RH  055%=      5-min Rain = 0
KWVS 181325Z 23012KT 09/00 A2982 RMK A01 T00910004  RH  055%=      5-min Rain = 0
KWVS 181330Z 23013G19KT 09/00 A2983 RMK A01 T00930004  RH  054%=      5-min Rain = 0
KWVS 181335Z 22013KT 09/00 A2982 RMK A01 T00940004  RH  054%=      5-min Rain = 0
KWVS 181340Z 22013KT 09/00 A2982 RMK A01 T00940003  RH  054%=      5-min Rain = 0
KWVS 181345Z 22013G18KT 09/00 A2982 RMK A01 T00940004  RH  054%=      5-min Rain = 0
KWVS 181350Z 22014KT 10/00 A2982 RMK A01 T00980004  RH  053%=      5-min Rain = 0
KWVS 181355Z 22013G18KT 10/00 A2981 RMK A01 T01020004  RH  051%=      5-min Rain = 0
KWVS 181400Z 22012G17KT 11/01 A2982 RMK A01 T01050005  RH  051%=      5-min Rain = 0
KWVS 181405Z 23011KT 11/01 A2981 RMK A01 T01090005  RH  049%=      5-min Rain = 0
KWVS 181410Z 23013KT 11/01 A2981 RMK A01 T01140006  RH  048%=      5-min Rain = 0
KWVS 181415Z 23013KT 12/01 A2981 RMK A01 T01180005  RH  046%=      5-min Rain = 0
KWVS 181420Z 23015G22KT 12/00 A2981 RMK A01 T01180004  RH  046%=      5-min Rain = 0
KWVS 181425Z 23014G20KT 12/00 A2981 RMK A01 T01180004  RH  046%=      5-min Rain = 0
KWVS 181430Z 23013G19KT 12/01 A2981 RMK A01 T01190005  RH  046%=      5-min Rain = 0
KWVS 181435Z 23014G19KT 12/01 A2981 RMK A01 T01220006  RH  045%=      5-min Rain = 0
KWVS 181440Z 23014G23KT 12/01 A298 RMK A01 T01220006  RH  045%=      5-min Rain = 0
KWVS 181445Z 23016G21KT 12/01 A298 RMK A01 T01240006  RH  045%=      5-min Rain = 0
KWVS 181450Z 24014KT 12/01 A298 RMK A01 T01240006  RH  045%=      5-min Rain = 0
KWVS 181455Z 23016G23KT 12/01 A298 RMK A01 T01210006  RH  046%=      5-min Rain = 0
KWVS 181500Z 23014KT 13/01 A298 RMK A01 T01250007  RH  045%=      5-min Rain = 0
KWVS 181505Z 22014KT 13/01 A298 RMK A01 T01280008  RH  044%=      5-min Rain = 0
KWVS 181510Z 22015KT 13/01 A298 RMK A01 T01300008  RH  044%=      5-min Rain = 0
KWVS 181515Z 22014KT 13/01 A298 RMK A01 T01320009  RH  044%=      5-min Rain = 0
KWVS 181520Z 22017KT 13/01 A298 RMK A01 T01280008  RH  044%=      5-min Rain = 0
KWVS 181525Z 22018G23KT 12/01 A298 RMK A01 T01240007  RH  045%=      5-min Rain = 0
KWVS 181530Z 22017KT 12/01 A298 RMK A01 T01200007  RH  047%=      5-min Rain = 0
KWVS 181535Z 22018G23KT 12/01 A2981 RMK A01 T01190007  RH  047%=      5-min Rain = 0
KWVS 181540Z 22016G21KT 12/01 A2981 RMK A01 T01170008  RH  048%=      5-min Rain = 0
KWVS 181545Z 22015KT 12/01 A2981 RMK A01 T01180009  RH  048%=      5-min Rain = 0
KWVS 181550Z 22016G21KT 13/01 A298 RMK A01 T01260011  RH  046%=      5-min Rain = 0
KWVS 181555Z 22016KT 13/01 A298 RMK A01 T01320011  RH  044%=      5-min Rain = 0
KWVS 181600Z 22016KT 14/01 A298 RMK A01 T01370010  RH  043%=      5-min Rain = 0
KWVS 181605Z 22015G20KT 14/01 A298 RMK A01 T01400011  RH  042%=      5-min Rain = 0
KWVS 181610Z 22015G20KT 15/01 A298 RMK A01 T01450012  RH  041%=      5-min Rain = 0
KWVS 181615Z 22014KT 15/01 A298 RMK A01 T01470011  RH  040%=      5-min Rain = 0
KWVS 181620Z 22014G20KT 15/01 A298 RMK A01 T01490012  RH  040%=      5-min Rain = 0
KWVS 181625Z 22015KT 15/01 A2979 RMK A01 T01490012  RH  040%=      5-min Rain = 0
KWVS 181630Z 22012G18KT 15/01 A2979 RMK A01 T01530014  RH  039%=      5-min Rain = 0
KWVS 181635Z 22013G20KT 16/01 A2979 RMK A01 T01580013  RH  038%=      5-min Rain = 0
KWVS 181640Z 22013G20KT 16/01 A2979 RMK A01 T01640012  RH  036%=      5-min Rain = 0
KWVS 181645Z 23016G22KT 17/01 A2978 RMK A01 T01650011  RH  036%=      5-min Rain = 0
KWVS 181650Z 23016G22KT 17/01 A2978 RMK A01 T01680010  RH  035%=      5-min Rain = 0
KWVS 181655Z 23015G20KT 17/01 A2978 RMK A01 T01690011  RH  035%=      5-min Rain = 0
KWVS 181700Z 23016G24KT 17/01 A2978 RMK A01 T01730011  RH  034%=      5-min Rain = 0
KWVS 181705Z 22018G26KT 17/01 A2977 RMK A01 T01700008  RH  034%=      5-min Rain = 0
KWVS 181710Z 23020G27KT 17/01 A2977 RMK A01 T01710007  RH  033%=      5-min Rain = 0
KWVS 181715Z 23016G22KT 17/01 A2978 RMK A01 T01740009  RH  033%=      5-min Rain = 0
KWVS 181720Z 24016G23KT 18/01 A2977 RMK A01 T01790009  RH  032%=      5-min Rain = 0
KWVS 181725Z 24018G24KT 18/01 A2977 RMK A01 T01760007  RH  032%=      5-min Rain = 0
KWVS 181730Z 24018G23KT 18/01 A2977 RMK A01 T01780007  RH  032%=      5-min Rain = 0
KWVS 181735Z 24018G24KT 18/01 A2976 RMK A01 T01810006  RH  031%=      5-min Rain = 0
KWVS 181740Z 25017G24KT 18/01 A2976 RMK A01 T01840006  RH  031%=      5-min Rain = 0
KWVS 181745Z 24018G25KT 19/01 A2975 RMK A01 T01890007  RH  030%=      5-min Rain = 0
KWVS 181750Z 24019G26KT 19/01 A2975 RMK A01 T01880006  RH  030%=      5-min Rain = 0
KWVS 181755Z 24016G22KT 19/01 A2975 RMK A01 T01940009  RH  029%=      5-min Rain = 0
KWVS 181800Z 24018G24KT 19/01 A2974 RMK A01 T01940005  RH  029%=      5-min Rain = 0
KWVS 181805Z 24017G23KT 20/00 A2974 RMK A01 T01950004  RH  028%=      5-min Rain = 0
KWVS 181810Z 25014G19KT 20/01 A2973 RMK A01 T02030007  RH  027%=      5-min Rain = 0
KWVS 181815Z 25017G23KT 20/00 A2973 RMK A01 T02010003  RH  027%=      5-min Rain = 0
KWVS 181820Z 24013G21KT 21/01 A2972 RMK A01 T02060005  RH  027%=      5-min Rain = 0
KWVS 181825Z 25015G21KT 21/00 A2971 RMK A01 T02140002  RH  025%=      5-min Rain = 0
KWVS 181830Z 25017G25KT 22/M00 A2971 RMK A01 T02191004  RH  023%=      5-min Rain = 0
KWVS 181835Z 25023G29KT 22/M01 A297 RMK A01 T02171013  RH  022%=      5-min Rain = 0
KWVS 181840Z 26018G26KT 22/M01 A297 RMK A01 T02221010  RH  021%=      5-min Rain = 0
KWVS 181845Z 26023G32KT 21/M01 A297 RMK A01 T02111013  RH  022%=      5-min Rain = 0
KWVS 181850Z 26023G33KT 21/M01 A2969 RMK A01 T02051014  RH  023%=      5-min Rain = 0
KWVS 181855Z 27022G30KT 21/M01 A2969 RMK A01 T02071013  RH  023%=      5-min Rain = 0
KWVS 181900Z 27023G33KT 21/M01 A2968 RMK A01 T02061013  RH  023%=      5-min Rain = 0
KWVS 181905Z 27025G31KT 21/M01 A2968 RMK A01 T02071014  RH  023%=      5-min Rain = 0
KWVS 181910Z 26021G32KT 21/M01 A2968 RMK A01 T02051013  RH  023%=      5-min Rain = 0
KWVS 181915Z 26021G29KT 21/M01 A2968 RMK A01 T02051013  RH  023%=      5-min Rain = 0
KWVS 181920Z 26021G27KT 21/M01 A2967 RMK A01 T02051014  RH  023%=      5-min Rain = 0
KWVS 181925Z 25022G28KT 21/M01 A2967 RMK A01 T02121013  RH  022%=      5-min Rain = 0
KWVS 181930Z 26025G34KT 21/M01 A2966 RMK A01 T02091014  RH  023%=      5-min Rain = 0
KWVS 181935Z 25022G28KT 21/M01 A2966 RMK A01 T02071012  RH  023%=      5-min Rain = 0
KWVS 181940Z 25021G30KT 21/M01 A2966 RMK A01 T02091009  RH  023%=      5-min Rain = 0
KWVS 181945Z 25020G27KT 21/M01 A2966 RMK A01 T02101009  RH  023%=      5-min Rain = 0
KWVS 181950Z 26021G30KT 21/M01 A2965 RMK A01 T02101010  RH  023%=      5-min Rain = 0
KWVS 181955Z 24019G26KT 21/M01 A2965 RMK A01 T02121008  RH  023%=      5-min Rain = 0
KWVS 182000Z 24024G32KT 21/M01 A2964 RMK A01 T02131009  RH  023%=      5-min Rain = 0
KWVS 182005Z 25022G28KT 22/M01 A2964 RMK A01 T02161009  RH  022%=      5-min Rain = 0
KWVS 182010Z 24021G28KT 22/M01 A2963 RMK A01 T02161008  RH  023%=      5-min Rain = 0
KWVS 182015Z 25024G35KT 22/M01 A2963 RMK A01 T02191009  RH  022%=      5-min Rain = 0
KWVS 182020Z 25024G34KT 22/M01 A2963 RMK A01 T02171009  RH  022%=      5-min Rain = 0
KWVS 182025Z 25025G34KT 22/M01 A2962 RMK A01 T02161010  RH  022%=      5-min Rain = 0
KWVS 182030Z 25025G37KT 21/M01 A2962 RMK A01 T02101011  RH  023%=      5-min Rain = 0
KWVS 182035Z 25023G31KT 21/M01 A2962 RMK A01 T02071012  RH  023%=      5-min Rain = 0
KWVS 182040Z 25025G35KT 21/M01 A2962 RMK A01 T02071014  RH  023%=      5-min Rain = 0
KWVS 182045Z 26019G30KT 22/M01 A2962 RMK A01 T02181012  RH  022%=      5-min Rain = 0
KWVS 182050Z 26021G30KT 22/M01 A2962 RMK A01 T02161014  RH  022%=      5-min Rain = 0
KWVS 182055Z 26024G32KT 20/M02 A2962 RMK A01 T02041016  RH  023%=      5-min Rain = 0
KWVS 182100Z 25024G32KT 20/M02 A2963 RMK A01 T02021017  RH  023%=      5-min Rain = 0
KWVS 182105Z 26025G32KT 20/M02 A2963 RMK A01 T02021016  RH  023%=      5-min Rain = 0
KWVS 182110Z 24024G33KT 20/M02 A2963 RMK A01 T02011015  RH  023%=      5-min Rain = 0
KWVS 182115Z 25021G30KT 20/M01 A2963 RMK A01 T02031014  RH  023%=      5-min Rain = 0
KWVS 182120Z 25021G32KT 20/M02 A2963 RMK A01 T02021016  RH  023%=      5-min Rain = 0
KWVS 182125Z 25018G27KT 20/M01 A2963 RMK A01 T02001014  RH  024%=      5-min Rain = 0
KWVS 182130Z 24019G30KT 20/M01 A2963 RMK A01 T02001014  RH  024%=      5-min Rain = 0
KWVS 182135Z 25024G37KT 20/M02 A2963 RMK A01 T02011015  RH  023%=      5-min Rain = 0
KWVS 182140Z 27028G36KT 20/M02 A2963 RMK A01 T02011022  RH  022%=      5-min Rain = 0
KWVS 182145Z 27023G35KT 20/M03 A2963 RMK A01 T01981026  RH  022%=      5-min Rain = 0
KWVS 182150Z 27022G31KT 20/M02 A2963 RMK A01 T01961022  RH  023%=      5-min Rain = 0
KWVS 182155Z 27022G31KT 20/M02 A2963 RMK A01 T01951016  RH  024%=      5-min Rain = 0
KWVS 182200Z 26024G36KT 20/M01 A2963 RMK A01 T01951013  RH  025%=      5-min Rain = 0
KWVS 182205Z 26024G31KT 19/M01 A2963 RMK A01 T01941010  RH  025%=      5-min Rain = 0
KWVS 182210Z 26026G36KT 19/M02 A2963 RMK A01 T01931015  RH  025%=      5-min Rain = 0
KWVS 182215Z 26027G36KT 19/M02 A2963 RMK A01 T01901015  RH  025%=      5-min Rain = 0
KWVS 182220Z 27027G36KT 19/M02 A2963 RMK A01 T01881015  RH  025%=      5-min Rain = 0
KWVS 182225Z 27027G37KT 19/M02 A2963 RMK A01 T01851016  RH  026%=      5-min Rain = 0
KWVS 182230Z 27028G35KT 18/M02 A2963 RMK A01 T01831017  RH  026%=      5-min Rain = 0
KWVS 182235Z 26027G35KT 18/M02 A2963 RMK A01 T01811015  RH  027%=      5-min Rain = 0
KWVS 182240Z 26024G32KT 18/M01 A2963 RMK A01 T01811012  RH  027%=      5-min Rain = 0
KWVS 182245Z 26022G29KT 18/M01 A2963 RMK A01 T01811009  RH  028%=      5-min Rain = 0
KWVS 182250Z 26027G40KT 18/M01 A2963 RMK A01 T01811010  RH  028%=      5-min Rain = 0
KWVS 182255Z 26024G36KT 18/M01 A2964 RMK A01 T01811014  RH  027%=      5-min Rain = 0
KWVS 182300Z 26026G45KT 18/M02 A2964 RMK A01 T01821022  RH  025%=      5-min Rain = 0
KWVS 182305Z 25026G36KT 18/M03 A2963 RMK A01 T01821030  RH  024%=      5-min Rain = 0
KWVS 182310Z 26025G38KT 18/M03 A2964 RMK A01 T01801031  RH  024%=      5-min Rain = 0
KWVS 182315Z 26026G34KT 18/M03 A2964 RMK A01 T01781032  RH  024%=      5-min Rain = 0
KWVS 182320Z 25023G30KT 18/M03 A2965 RMK A01 T01771029  RH  025%=      5-min Rain = 0
KWVS 182325Z 25026G33KT 18/M03 A2965 RMK A01 T01761032  RH  024%=      5-min Rain = 0
KWVS 182330Z 24021G28KT 17/M04 A2965 RMK A01 T01741035  RH  024%=      5-min Rain = 0
KWVS 182335Z 24021G27KT 17/M04 A2965 RMK A01 T01731040  RH  023%=      5-min Rain = 0
KWVS 182340Z 24024G36KT 17/M04 A2966 RMK A01 T01721040  RH  023%=      5-min Rain = 0
KWVS 182345Z 25020G28KT 17/M04 A2965 RMK A01 T01711039  RH  024%=      5-min Rain = 0
KWVS 182350Z 25016G23KT 17/M04 A2965 RMK A01 T01691037  RH  024%=      5-min Rain = 0
KWVS 182355Z 24016G22KT 17/M04 A2964 RMK A01 T01661039  RH  024%=      5-min Rain = 0
KWVS 190000Z 25013G21KT 16/M04 A2964 RMK A01 T01621041  RH  025%=      5-min Rain = 0
KWVS 190005Z 25015G22KT 16/M05 A2964 RMK A01 T01611047  RH  024%=      5-min Rain = 0
KWVS 190010Z 25015G20KT 16/M05 A2965 RMK A01 T01591049  RH  024%=      5-min Rain = 0
KWVS 190015Z 25016G23KT 16/M05 A2966 RMK A01 T01571049  RH  024%=      5-min Rain = 0
KWVS 190020Z 25017G23KT 16/M05 A2966 RMK A01 T01581053  RH  023%=      5-min Rain = 0
KWVS 190025Z 25018G24KT 16/M05 A2967 RMK A01 T01571054  RH  023%=      5-min Rain = 0
KWVS 190030Z 24017G22KT 16/M05 A2967 RMK A01 T01551054  RH  023%=      5-min Rain = 0
KWVS 190035Z 24015G20KT 15/M05 A2967 RMK A01 T01521054  RH  024%=      5-min Rain = 0
KWVS 190040Z 24015KT 15/M06 A2967 RMK A01 T01521055  RH  024%=      5-min Rain = 0
KWVS 190045Z 24018G26KT 15/M06 A2967 RMK A01 T01521056  RH  023%=      5-min Rain = 0
KWVS 190050Z 25018G25KT 15/M06 A2968 RMK A01 T01511057  RH  023%=      5-min Rain = 0
KWVS 190055Z 25018G26KT 15/M06 A2969 RMK A01 T01501059  RH  023%=      5-min Rain = 0
KWVS 190100Z 26017G22KT 15/M06 A2969 RMK A01 T01471063  RH  023%=      5-min Rain = 0
KWVS 190105Z 26014G19KT 15/M07 A2969 RMK A01 T01451067  RH  022%=      5-min Rain = 0
KWVS 190110Z 26016G21KT 14/M07 A2969 RMK A01 T01441071  RH  022%=      5-min Rain = 0
KWVS 190115Z 26015G21KT 14/M07 A2968 RMK A01 T01421072  RH  022%=      5-min Rain = 0
KWVS 190120Z 26014KT 14/M07 A2969 RMK A01 T01401071  RH  022%=      5-min Rain = 0
KWVS 190125Z 25014G21KT 14/M07 A2969 RMK A01 T01391071  RH  023%=      5-min Rain = 0
KWVS 190130Z 25013KT 14/M07 A2969 RMK A01 T01381070  RH  023%=      5-min Rain = 0
KWVS 190135Z 25014G19KT 14/M07 A2968 RMK A01 T01371069  RH  023%=      5-min Rain = 0
KWVS 190140Z 25013KT 14/M07 A2968 RMK A01 T01351067  RH  024%=      5-min Rain = 0
KWVS 190145Z 27019G35KT 14/M07 A2969 RMK A01 T01361065  RH  024%=      5-min Rain = 0
KWVS 190150Z 30032G42KT 12/M03 A2971 RMK A01 T01171031  RH  037%=      5-min Rain = 0
KWVS 190155Z 32038G49KT 09/M01 A2972 RMK A01 T00931010  RH  049%=      5-min Rain = 0
KWVS 190200Z 32037G45KT 08/M01 A2973 RMK A01 T00801010  RH  053%=      5-min Rain = 0
KWVS 190205Z 33036G45KT 07/M01 A2974 RMK A01 T00741010  RH  056%=      5-min Rain = 0
KWVS 190210Z 33034G46KT 07/M01 A2975 RMK A01 T00701010  RH  058%=      5-min Rain = 0
KWVS 190215Z 33032G42KT 07/M01 A2976 RMK A01 T00661010  RH  059%=      5-min Rain = 0
KWVS 190220Z 33034G43KT 06/M01 A2977 RMK A01 T00621011  RH  060%=      5-min Rain = 0
KWVS 190225Z 33034G42KT 06/M01 A2977 RMK A01 T00591012  RH  061%=      5-min Rain = 0
KWVS 190230Z 33033G42KT 06/M01 A2979 RMK A01 T00561013  RH  062%=      5-min Rain = 0
KWVS 190235Z 33031G40KT 05/M01 A298 RMK A01 T00531014  RH  062%=      5-min Rain = 0
KWVS 190240Z 32033G42KT 05/M02 A298 RMK A01 T00511015  RH  063%=      5-min Rain = 0
KWVS 190245Z 33028G38KT 05/M02 A2981 RMK A01 T00511015  RH  063%=      5-min Rain = 0
KWVS 190250Z 33025G34KT 05/M02 A2982 RMK A01 T00501015  RH  064%=      5-min Rain = 0
KWVS 190255Z 33023G30KT 05/M01 A2983 RMK A01 T00491014  RH  064%=      5-min Rain = 0
KWVS 190300Z 33022G29KT 05/M01 A2983 RMK A01 T00501014  RH  064%=      5-min Rain = 0
KWVS 190305Z 33023G32KT 05/M01 A2984 RMK A01 T00511014  RH  064%=      5-min Rain = 0
KWVS 190310Z 32027G35KT 05/M01 A2984 RMK A01 T00521013  RH  063%=      5-min Rain = 0
KWVS 190315Z 33026G34KT 05/M01 A2984 RMK A01 T00511014  RH  063%=      5-min Rain = 0
KWVS 190320Z 33022G33KT 05/M01 A2984 RMK A01 T00501014  RH  064%=      5-min Rain = 0
KWVS 190325Z 33026G36KT 05/M02 A2985 RMK A01 T00491015  RH  064%=      5-min Rain = 0
KWVS 190330Z 33033G39KT 05/M02 A2985 RMK A01 T00461019  RH  063%=      5-min Rain = 0
KWVS 190335Z 33033G44KT 04/M02 A2985 RMK A01 T00441020  RH  063%=      5-min Rain = 0
KWVS 190340Z 34030G37KT 04/M02 A2986 RMK A01 T00431020  RH  064%=      5-min Rain = 0
KWVS 190345Z 33031G43KT 04/M02 A2986 RMK A01 T00431020  RH  064%=      5-min Rain = 0
KWVS 190350Z 34030G38KT 04/M02 A2987 RMK A01 T00431020  RH  064%=      5-min Rain = 0
KWVS 190355Z 33029G37KT 04/M02 A2988 RMK A01 T00431021  RH  064%=      5-min Rain = 0
KWVS 190400Z 33032G39KT 04/M02 A2988 RMK A01 T00431024  RH  062%=      5-min Rain = 0
KWVS 190405Z 33030G37KT 04/M03 A2989 RMK A01 T00431029  RH  060%=      5-min Rain = 0
KWVS 190410Z 34031G41KT 04/M03 A299 RMK A01 T00411031  RH  060%=      5-min Rain = 0
KWVS 190415Z 34028G38KT 04/M03 A299 RMK A01 T00411032  RH  059%=      5-min Rain = 0
KWVS 190420Z 33029G37KT 04/M03 A299 RMK A01 T00411032  RH  059%=      5-min Rain = 0
KWVS 190425Z 33033G39KT 04/M03 A2991 RMK A01 T00411031  RH  060%=      5-min Rain = 0
KWVS 190430Z 33034G44KT 04/M03 A2991 RMK A01 T00401032  RH  060%=      5-min Rain = 0
KWVS 190435Z 33033G43KT 04/M03 A2992 RMK A01 T00381032  RH  060%=      5-min Rain = 0
KWVS 190440Z 33035G42KT 04/M03 A2992 RMK A01 T00371034  RH  060%=      5-min Rain = 0
KWVS 190445Z 34032G43KT 04/M04 A2993 RMK A01 T00371035  RH  060%=      5-min Rain = 0
KWVS 190450Z 33031G41KT 04/M04 A2993 RMK A01 T00361035  RH  060%=      5-min Rain = 0
KWVS 190455Z 33029G37KT 04/M04 A2994 RMK A01 T00361036  RH  060%=      5-min Rain = 0
KWVS 190500Z 33030G41KT 04/M04 A2995 RMK A01 T00361036  RH  060%=      5-min Rain = 0
KWVS 190505Z 33031G38KT 04/M04 A2995 RMK A01 T00351037  RH  060%=      5-min Rain = 0
KWVS 190510Z 34031G39KT 04/M04 A2995 RMK A01 T00351036  RH  060%=      5-min Rain = 0
KWVS 190515Z 33035G43KT 04/M04 A2996 RMK A01 T00351036  RH  060%=      5-min Rain = 0
KWVS 190520Z 33031G41KT 04/M04 A2996 RMK A01 T00351036  RH  060%=      5-min Rain = 0
KWVS 190525Z 33028G37KT 04/M04 A2997 RMK A01 T00351035  RH  061%=      5-min Rain = 0
KWVS 190530Z 33029G38KT 03/M04 A2997 RMK A01 T00341035  RH  061%=      5-min Rain = 0
KWVS 190535Z 33032G41KT 03/M04 A2997 RMK A01 T00341036  RH  060%=      5-min Rain = 0
KWVS 190540Z 33031G41KT 03/M04 A2998 RMK A01 T00331036  RH  061%=      5-min Rain = 0
KWVS 190545Z 33033G41KT 03/M04 A2998 RMK A01 T00331036  RH  061%=      5-min Rain = 0
KWVS 190550Z 33030G38KT 03/M04 A2999 RMK A01 T00321036  RH  062%=      5-min Rain = 0
KWVS 190555Z 33032G39KT 03/M03 A2999 RMK A01 T00291032  RH  065%=      5-min Rain = 0

Page generated in 0.0155 seconds.